createdAt,value
2019-03-20T00:00:31.526Z,0.00
2019-03-20T00:01:31.544Z,0.00
2019-03-20T00:02:31.513Z,0.00
2019-03-20T00:03:31.503Z,0.00
2019-03-20T00:04:31.494Z,0.00
2019-03-20T00:05:31.487Z,0.00
2019-03-20T00:06:31.511Z,0.00
2019-03-20T00:07:31.473Z,0.00
2019-03-20T00:08:31.468Z,0.00
2019-03-20T00:09:31.468Z,0.00
2019-03-20T00:10:31.460Z,0.00
2019-03-20T00:11:31.476Z,0.00
2019-03-20T00:12:31.440Z,0.00
2019-03-20T00:13:31.434Z,0.00
2019-03-20T00:14:31.424Z,0.00
2019-03-20T00:15:31.415Z,0.00
2019-03-20T00:16:31.436Z,0.00
2019-03-20T00:17:31.399Z,0.00
2019-03-20T00:18:31.396Z,0.00
2019-03-20T00:19:31.389Z,0.00
2019-03-20T00:20:31.380Z,0.00
2019-03-20T00:21:31.403Z,0.00
2019-03-20T00:22:31.373Z,0.00
2019-03-20T00:23:31.363Z,0.00
2019-03-20T00:24:31.462Z,0.00
2019-03-20T00:25:31.343Z,0.00
2019-03-20T00:26:31.374Z,0.00
2019-03-20T00:27:31.328Z,0.00
2019-03-20T00:28:31.320Z,0.00
2019-03-20T00:29:31.315Z,0.00
2019-03-20T00:30:31.310Z,0.00
2019-03-20T00:31:31.327Z,0.00
2019-03-20T00:32:31.291Z,0.00
2019-03-20T00:33:31.283Z,0.00
2019-03-20T00:34:31.281Z,0.00
2019-03-20T00:35:31.307Z,0.00
2019-03-20T00:36:31.262Z,0.00
2019-03-20T00:37:31.251Z,0.00
2019-03-20T00:38:31.244Z,0.00
2019-03-20T00:39:31.247Z,0.00
2019-03-20T00:40:31.268Z,0.00
2019-03-20T00:41:31.226Z,0.00
2019-03-20T00:42:31.215Z,0.00
2019-03-20T00:43:31.211Z,0.00
2019-03-20T00:44:31.203Z,0.00
2019-03-20T00:45:31.230Z,0.00
2019-03-20T00:46:31.183Z,0.00
2019-03-20T00:47:31.182Z,0.00
2019-03-20T00:48:31.169Z,0.00
2019-03-20T00:49:31.163Z,0.00
2019-03-20T00:50:31.186Z,0.00
2019-03-20T00:51:31.149Z,0.00
2019-03-20T00:52:31.141Z,0.00
2019-03-20T00:53:31.134Z,0.00
2019-03-20T00:54:31.129Z,0.00
2019-03-20T00:55:31.146Z,0.00
2019-03-20T00:56:31.113Z,0.00
2019-03-20T00:57:31.101Z,0.00
2019-03-20T00:58:31.102Z,0.00
2019-03-20T00:59:31.084Z,0.00
2019-03-20T01:00:31.106Z,0.00
2019-03-20T01:01:31.070Z,0.00
2019-03-20T01:02:31.060Z,0.00
2019-03-20T01:03:31.062Z,0.00
2019-03-20T01:04:31.046Z,0.00
2019-03-20T01:05:31.070Z,0.00
2019-03-20T01:06:31.036Z,0.00
2019-03-20T01:07:31.030Z,0.00
2019-03-20T01:08:31.019Z,0.00
2019-03-20T01:09:31.011Z,0.00
2019-03-20T01:10:31.034Z,0.00
2019-03-20T01:11:30.995Z,0.00
2019-03-20T01:12:30.986Z,0.00
2019-03-20T01:13:30.965Z,0.00
2019-03-20T01:14:30.972Z,0.00
2019-03-20T01:15:30.999Z,0.00
2019-03-20T01:16:30.954Z,0.00
2019-03-20T01:17:30.942Z,0.00
2019-03-20T01:18:30.937Z,0.00
2019-03-20T01:19:30.927Z,0.00
2019-03-20T01:20:30.959Z,0.00
2019-03-20T01:21:30.918Z,0.00
2019-03-20T01:22:30.909Z,0.00
2019-03-20T01:23:30.900Z,0.00
2019-03-20T01:24:30.893Z,0.00
2019-03-20T01:25:30.913Z,0.00
2019-03-20T01:26:30.878Z,0.00
2019-03-20T01:27:30.868Z,0.00
2019-03-20T01:28:30.866Z,0.00
2019-03-20T01:29:30.856Z,0.00
2019-03-20T01:30:30.865Z,0.00
2019-03-20T01:31:30.837Z,0.00
2019-03-20T01:32:30.830Z,0.00
2019-03-20T01:33:30.820Z,0.00
2019-03-20T01:34:30.846Z,0.00
2019-03-20T01:35:30.806Z,0.00
2019-03-20T01:36:30.830Z,0.00
2019-03-20T01:37:30.785Z,0.00
2019-03-20T01:38:30.777Z,0.00
2019-03-20T01:39:30.773Z,0.00
2019-03-20T01:40:30.763Z,0.00
2019-03-20T01:41:37.931Z,0.00
2019-03-20T01:42:30.744Z,0.00
2019-03-20T01:43:30.739Z,0.00
2019-03-20T01:44:30.737Z,0.00
2019-03-20T01:45:30.723Z,0.00
2019-03-20T01:46:30.737Z,0.00
2019-03-20T01:47:30.704Z,0.00
2019-03-20T01:48:30.706Z,0.00
2019-03-20T01:49:30.750Z,0.00
2019-03-20T01:50:30.687Z,0.00
2019-03-20T01:51:30.765Z,0.00
2019-03-20T01:52:30.669Z,0.00
2019-03-20T01:53:30.658Z,0.00
2019-03-20T01:54:30.649Z,0.00
2019-03-20T01:55:30.645Z,0.00
2019-03-20T01:56:30.658Z,0.00
2019-03-20T01:57:30.631Z,0.00
2019-03-20T01:58:30.620Z,0.00
2019-03-20T01:59:30.612Z,0.00
2019-03-20T02:00:30.603Z,0.00
2019-03-20T02:01:30.619Z,0.00
2019-03-20T02:02:30.586Z,0.00
2019-03-20T02:03:30.579Z,0.00
2019-03-20T02:04:30.630Z,0.00
2019-03-20T02:05:35.843Z,0.00
2019-03-20T02:06:30.549Z,0.00
2019-03-20T02:07:30.544Z,0.00
2019-03-20T02:08:30.537Z,0.00
2019-03-20T02:09:30.554Z,0.00
2019-03-20T02:10:30.516Z,0.00
2019-03-20T02:11:30.542Z,0.00
2019-03-20T02:12:30.498Z,0.00
2019-03-20T02:13:30.494Z,0.00
2019-03-20T02:14:30.487Z,0.00
2019-03-20T02:15:38.691Z,0.00
2019-03-20T02:16:30.471Z,0.00
2019-03-20T02:17:30.464Z,0.00
2019-03-20T02:18:30.458Z,0.00
2019-03-20T02:19:30.447Z,0.00
2019-03-20T02:20:30.471Z,0.00
2019-03-20T02:21:30.427Z,0.00
2019-03-20T02:22:30.419Z,0.00
2019-03-20T02:23:30.415Z,0.00
2019-03-20T02:24:30.408Z,0.00
2019-03-20T02:25:32.275Z,0.00
2019-03-20T02:26:30.386Z,0.00
2019-03-20T02:27:30.379Z,0.00
2019-03-20T02:28:30.368Z,0.00
2019-03-20T02:29:30.360Z,0.00
2019-03-20T02:30:30.389Z,0.00
2019-03-20T02:31:30.347Z,0.00
2019-03-20T02:32:30.348Z,0.00
2019-03-20T02:33:30.327Z,0.00
2019-03-20T02:34:30.355Z,0.00
2019-03-20T02:35:30.313Z,0.00
2019-03-20T02:36:30.306Z,0.00
2019-03-20T02:37:30.295Z,0.00
2019-03-20T02:38:30.291Z,0.00
2019-03-20T02:39:30.319Z,0.00
2019-03-20T02:40:30.272Z,0.00
2019-03-20T02:41:30.297Z,0.00
2019-03-20T02:42:30.253Z,0.00
2019-03-20T02:43:30.251Z,0.00
2019-03-20T02:44:30.402Z,0.00
2019-03-20T02:45:30.259Z,0.00
2019-03-20T02:46:30.230Z,0.00
2019-03-20T02:47:30.218Z,0.00
2019-03-20T02:48:30.216Z,0.00
2019-03-20T02:49:30.194Z,0.00
2019-03-20T02:50:30.214Z,0.00
2019-03-20T02:51:30.206Z,0.00
2019-03-20T02:52:30.174Z,0.00
2019-03-20T02:53:30.160Z,0.00
2019-03-20T02:54:30.153Z,0.00
2019-03-20T02:55:30.179Z,0.00
2019-03-20T02:56:30.137Z,0.00
2019-03-20T02:57:30.131Z,0.00
2019-03-20T02:58:30.119Z,0.00
2019-03-20T02:59:30.106Z,0.00
2019-03-20T03:00:30.142Z,0.00
2019-03-20T03:01:30.102Z,0.00
2019-03-20T03:02:30.085Z,0.00
2019-03-20T03:03:30.084Z,0.00
2019-03-20T03:04:30.073Z,0.00
2019-03-20T03:05:30.098Z,0.00
2019-03-20T03:06:30.081Z,0.00
2019-03-20T03:07:30.054Z,0.00
2019-03-20T03:08:30.035Z,0.00
2019-03-20T03:09:30.025Z,0.00
2019-03-20T03:10:30.047Z,0.00
2019-03-20T03:11:30.009Z,0.00
2019-03-20T03:12:30.064Z,0.00
2019-03-20T03:13:29.996Z,0.00
2019-03-20T03:14:29.980Z,0.00
2019-03-20T03:15:30.008Z,0.00
2019-03-20T03:16:29.999Z,0.00
2019-03-20T03:17:29.967Z,0.00
2019-03-20T03:18:29.951Z,0.00
2019-03-20T03:19:29.941Z,0.00
2019-03-20T03:20:29.965Z,0.00
2019-03-20T03:21:29.924Z,0.00
2019-03-20T03:22:29.918Z,0.00
2019-03-20T03:23:29.907Z,0.00
2019-03-20T03:24:29.904Z,0.00
2019-03-20T03:25:29.936Z,0.00
2019-03-20T03:26:29.916Z,0.00
2019-03-20T03:27:29.887Z,0.00
2019-03-20T03:28:29.860Z,0.00
2019-03-20T03:29:29.881Z,0.00
2019-03-20T03:30:29.882Z,0.00
2019-03-20T03:31:29.850Z,0.00
2019-03-20T03:32:30.021Z,0.00
2019-03-20T03:33:29.868Z,0.00
2019-03-20T03:34:29.828Z,0.00
2019-03-20T03:35:29.858Z,0.00
2019-03-20T03:36:29.804Z,0.00
2019-03-20T03:37:29.786Z,0.00
2019-03-20T03:38:29.779Z,0.00
2019-03-20T03:39:29.771Z,0.00
2019-03-20T03:40:29.789Z,0.00
2019-03-20T03:41:29.760Z,0.00
2019-03-20T03:42:29.755Z,0.00
2019-03-20T03:43:29.735Z,0.00
2019-03-20T03:44:29.735Z,0.00
2019-03-20T03:45:29.753Z,0.00
2019-03-20T03:46:29.736Z,0.00
2019-03-20T03:47:29.695Z,0.00
2019-03-20T03:48:29.706Z,0.00
2019-03-20T03:49:29.695Z,0.00
2019-03-20T03:50:29.713Z,0.00
2019-03-20T03:51:29.669Z,0.00
2019-03-20T03:52:29.660Z,0.00
2019-03-20T03:53:29.655Z,0.00
2019-03-20T03:54:29.644Z,0.00
2019-03-20T03:55:29.680Z,0.00
2019-03-20T03:56:29.655Z,0.00
2019-03-20T03:57:29.718Z,0.00
2019-03-20T03:58:32.769Z,0.00
2019-03-20T03:59:29.598Z,0.00
2019-03-20T04:00:29.601Z,0.00
2019-03-20T04:01:29.611Z,0.00
2019-03-20T04:02:29.586Z,0.00
2019-03-20T04:03:29.572Z,0.00
2019-03-20T04:04:29.564Z,0.00
2019-03-20T04:05:29.560Z,0.00
2019-03-20T04:06:35.689Z,0.00
2019-03-20T04:07:29.533Z,0.00
2019-03-20T04:08:29.527Z,0.00
2019-03-20T04:09:29.511Z,0.00
2019-03-20T04:10:29.515Z,0.00
2019-03-20T04:11:29.519Z,0.00
2019-03-20T04:12:29.520Z,0.00
2019-03-20T04:13:29.482Z,0.00
2019-03-20T04:14:29.471Z,0.00
2019-03-20T04:15:29.459Z,0.00
2019-03-20T04:16:29.480Z,0.00
2019-03-20T04:17:29.446Z,0.00
2019-03-20T04:18:29.452Z,0.00
2019-03-20T04:19:29.430Z,0.00
2019-03-20T04:20:29.417Z,0.00
2019-03-20T04:21:29.451Z,0.00
2019-03-20T04:22:29.399Z,0.00
2019-03-20T04:23:29.393Z,0.00
2019-03-20T04:24:29.382Z,0.00
2019-03-20T04:25:29.373Z,0.00
2019-03-20T04:26:29.394Z,0.00
2019-03-20T04:27:29.357Z,0.00
2019-03-20T04:28:29.346Z,0.00
2019-03-20T04:29:29.338Z,0.00
2019-03-20T04:30:29.333Z,0.00
2019-03-20T04:31:29.347Z,0.00
2019-03-20T04:32:29.313Z,0.00
2019-03-20T04:33:29.307Z,0.00
2019-03-20T04:34:29.297Z,0.00
2019-03-20T04:35:29.301Z,0.00
2019-03-20T04:36:29.305Z,0.00
2019-03-20T04:37:29.295Z,0.00
2019-03-20T04:38:29.259Z,0.00
2019-03-20T04:39:29.256Z,0.00
2019-03-20T04:40:29.249Z,0.00
2019-03-20T04:41:29.258Z,0.00
2019-03-20T04:42:29.232Z,0.00
2019-03-20T04:43:29.218Z,4.00
2019-03-20T04:44:29.207Z,4.00
2019-03-20T04:45:29.198Z,0.00
2019-03-20T04:46:29.220Z,4.00
2019-03-20T04:47:29.209Z,4.00
2019-03-20T04:48:29.175Z,8.00
2019-03-20T04:49:29.156Z,8.00
2019-03-20T04:50:29.151Z,8.00
2019-03-20T04:51:29.175Z,8.00
2019-03-20T04:52:29.131Z,8.00
2019-03-20T04:53:29.122Z,12.00
2019-03-20T04:54:29.116Z,16.00
2019-03-20T04:55:29.113Z,20.00
2019-03-20T04:56:29.131Z,24.00
2019-03-20T04:57:29.091Z,28.00
2019-03-20T04:58:29.079Z,36.00
2019-03-20T04:59:29.072Z,40.00
2019-03-20T05:00:29.065Z,48.00
2019-03-20T05:01:29.077Z,56.00
2019-03-20T05:02:29.044Z,64.00
2019-03-20T05:03:29.032Z,80.00
2019-03-20T05:04:29.026Z,92.00
2019-03-20T05:05:29.018Z,108.00
2019-03-20T05:06:29.038Z,128.00
2019-03-20T05:07:28.999Z,148.00
2019-03-20T05:08:28.994Z,164.00
2019-03-20T05:09:28.996Z,188.00
2019-03-20T05:10:28.970Z,216.00
2019-03-20T05:11:28.994Z,244.00
2019-03-20T05:12:28.954Z,272.00
2019-03-20T05:13:28.945Z,304.00
2019-03-20T05:14:28.942Z,340.00
2019-03-20T05:15:28.923Z,380.00
2019-03-20T05:16:28.959Z,416.00
2019-03-20T05:17:28.920Z,456.00
2019-03-20T05:18:28.902Z,504.00
2019-03-20T05:19:28.891Z,552.00
2019-03-20T05:20:28.879Z,600.00
2019-03-20T05:21:28.905Z,656.00
2019-03-20T05:22:28.896Z,708.00
2019-03-20T05:23:28.858Z,764.00
2019-03-20T05:24:28.845Z,820.00
2019-03-20T05:25:28.837Z,884.00
2019-03-20T05:26:28.834Z,948.00
2019-03-20T05:27:28.852Z,1012.00
2019-03-20T05:28:28.813Z,1076.00
2019-03-20T05:29:28.801Z,1144.00
2019-03-20T05:30:28.793Z,1212.00
2019-03-20T05:31:28.789Z,1280.00
2019-03-20T05:32:28.806Z,1352.00
2019-03-20T05:33:28.800Z,1436.00
2019-03-20T05:34:28.760Z,1504.00
2019-03-20T05:35:28.749Z,1576.00
2019-03-20T05:36:28.744Z,1692.00
2019-03-20T05:37:28.759Z,1832.00
2019-03-20T05:38:28.721Z,1940.00
2019-03-20T05:39:28.713Z,2008.00
2019-03-20T05:40:28.704Z,2012.00
2019-03-20T05:41:28.698Z,2052.00
2019-03-20T05:42:28.710Z,2288.00
2019-03-20T05:43:28.721Z,2448.00
2019-03-20T05:44:28.668Z,2380.00
2019-03-20T05:45:28.660Z,2464.00
2019-03-20T05:46:28.654Z,2652.00
2019-03-20T05:47:28.678Z,2752.00
2019-03-20T05:48:28.641Z,2732.00
2019-03-20T05:49:28.634Z,2684.00
2019-03-20T05:50:28.616Z,2680.00
2019-03-20T05:51:28.609Z,2760.00
2019-03-20T05:52:28.643Z,2964.00
2019-03-20T05:53:28.599Z,3032.00
2019-03-20T05:54:28.582Z,2944.00
2019-03-20T05:55:28.579Z,2976.00
2019-03-20T05:56:28.564Z,2992.00
2019-03-20T05:57:28.587Z,3076.00
2019-03-20T05:58:28.576Z,3184.00
2019-03-20T05:59:28.541Z,3248.00
2019-03-20T06:00:28.541Z,3340.00
2019-03-20T06:01:28.527Z,3368.00
2019-03-20T06:02:28.542Z,3412.00
2019-03-20T06:03:28.515Z,3476.00
2019-03-20T06:04:28.499Z,3512.00
2019-03-20T06:05:28.497Z,3552.00
2019-03-20T06:06:28.480Z,3676.00
2019-03-20T06:07:28.508Z,3680.00
2019-03-20T06:08:28.493Z,3680.00
2019-03-20T06:09:28.469Z,3764.00
2019-03-20T06:10:28.450Z,3888.00
2019-03-20T06:11:28.442Z,4232.00
2019-03-20T06:12:28.471Z,4476.00
2019-03-20T06:13:28.426Z,4716.00
2019-03-20T06:14:28.422Z,4936.00
2019-03-20T06:15:28.413Z,4868.00
2019-03-20T06:16:28.415Z,4852.00
2019-03-20T06:17:28.425Z,5548.00
2019-03-20T06:18:28.396Z,5952.00
2019-03-20T06:19:28.380Z,5940.00
2019-03-20T06:20:28.374Z,6136.00
2019-03-20T06:21:28.372Z,5668.00
2019-03-20T06:22:28.386Z,5488.00
2019-03-20T06:23:28.378Z,5744.00
2019-03-20T06:24:28.343Z,5980.00
2019-03-20T06:25:28.339Z,6152.00
2019-03-20T06:26:28.329Z,6088.00
2019-03-20T06:27:28.351Z,6464.00
2019-03-20T06:28:28.311Z,7012.00
2019-03-20T06:29:28.337Z,8028.00
2019-03-20T06:30:28.302Z,8212.00
2019-03-20T06:31:28.305Z,7968.00
2019-03-20T06:32:28.312Z,7992.00
2019-03-20T06:33:28.277Z,7944.00
2019-03-20T06:34:28.269Z,7968.00
2019-03-20T06:35:28.265Z,7776.00
2019-03-20T06:36:28.453Z,7476.00
2019-03-20T06:37:32.430Z,7100.00
2019-03-20T06:38:28.248Z,6920.00
2019-03-20T06:39:28.242Z,6488.00
2019-03-20T06:40:28.233Z,6308.00
2019-03-20T06:41:28.272Z,6436.00
2019-03-20T06:42:28.225Z,6800.00
2019-03-20T06:43:28.220Z,6952.00
2019-03-20T06:44:28.216Z,6756.00
2019-03-20T06:45:28.210Z,6688.00
2019-03-20T06:46:28.238Z,6676.00
2019-03-20T06:47:28.232Z,6620.00
2019-03-20T06:48:28.228Z,6552.00
2019-03-20T06:49:28.193Z,6488.00
2019-03-20T06:50:28.188Z,6440.00
2019-03-20T06:51:28.183Z,6420.00
2019-03-20T06:52:28.180Z,6472.00
2019-03-20T06:53:28.206Z,6496.00
2019-03-20T06:54:28.176Z,6524.00
2019-03-20T06:55:28.169Z,6548.00
2019-03-20T06:56:28.165Z,6608.00
2019-03-20T06:57:28.164Z,6660.00
2019-03-20T06:58:28.187Z,6692.00
2019-03-20T06:59:28.155Z,6724.00
2019-03-20T07:00:28.153Z,6768.00
2019-03-20T07:01:28.211Z,6796.00
2019-03-20T07:02:28.148Z,6824.00
2019-03-20T07:03:28.172Z,6896.00
2019-03-20T07:04:28.144Z,6940.00
2019-03-20T07:05:28.140Z,6996.00
2019-03-20T07:06:28.142Z,7064.00
2019-03-20T07:07:28.143Z,7132.00
2019-03-20T07:08:28.156Z,7196.00
2019-03-20T07:09:28.174Z,7232.00
2019-03-20T07:10:28.134Z,7272.00
2019-03-20T07:11:28.126Z,7312.00
2019-03-20T07:12:28.156Z,7344.00
2019-03-20T07:13:28.119Z,7352.00
2019-03-20T07:14:28.122Z,7384.00
2019-03-20T07:15:28.124Z,7388.00
2019-03-20T07:16:28.122Z,7416.00
2019-03-20T07:17:28.140Z,7476.00
2019-03-20T07:18:28.173Z,7528.00
2019-03-20T07:19:28.127Z,7628.00
2019-03-20T07:20:28.125Z,7696.00
2019-03-20T07:21:28.115Z,7736.00
2019-03-20T07:22:28.796Z,7776.00
2019-03-20T07:23:28.965Z,7812.00
2019-03-20T07:24:28.142Z,7832.00
2019-03-20T07:25:28.111Z,7896.00
2019-03-20T07:26:28.754Z,7976.00
2019-03-20T07:27:28.117Z,8016.00
2019-03-20T07:28:28.151Z,8016.00
2019-03-20T07:29:28.114Z,8040.00
2019-03-20T07:30:28.117Z,8064.00
2019-03-20T07:31:28.117Z,8112.00
2019-03-20T07:32:29.986Z,8144.00
2019-03-20T07:33:28.141Z,8220.00
2019-03-20T07:34:28.113Z,8264.00
2019-03-20T07:35:28.115Z,8312.00
2019-03-20T07:36:28.115Z,8392.00
2019-03-20T07:37:28.118Z,8428.00
2019-03-20T07:38:28.161Z,8488.00
2019-03-20T07:39:28.122Z,8512.00
2019-03-20T07:40:28.122Z,8524.00
2019-03-20T07:41:28.124Z,8556.00
2019-03-20T07:42:28.121Z,8648.00
2019-03-20T07:43:28.157Z,8704.00
2019-03-20T07:44:28.122Z,8768.00
2019-03-20T07:45:28.129Z,8824.00
2019-03-20T07:46:28.126Z,8872.00
2019-03-20T07:47:28.129Z,8932.00
2019-03-20T07:48:28.130Z,9016.00
2019-03-20T07:49:28.158Z,9108.00
2019-03-20T07:50:28.139Z,9168.00
2019-03-20T07:51:28.133Z,9224.00
2019-03-20T07:52:28.139Z,9212.00
2019-03-20T07:53:28.161Z,9240.00
2019-03-20T07:54:28.142Z,9276.00
2019-03-20T07:55:28.140Z,9372.00
2019-03-20T07:56:28.149Z,9496.00
2019-03-20T07:57:28.145Z,9728.00
2019-03-20T07:58:28.148Z,9948.00
2019-03-20T07:59:28.180Z,10120.00
2019-03-20T08:00:28.155Z,10352.00
2019-03-20T08:01:28.157Z,10580.00
2019-03-20T08:02:28.159Z,10700.00
2019-03-20T08:03:28.166Z,10648.00
2019-03-20T08:04:28.189Z,10700.00
2019-03-20T08:05:29.380Z,10848.00
2019-03-20T08:06:28.172Z,10992.00
2019-03-20T08:07:28.175Z,11524.00
2019-03-20T08:08:28.176Z,12252.00
2019-03-20T08:09:28.222Z,12256.00
2019-03-20T08:10:28.186Z,11628.00
2019-03-20T08:11:28.192Z,11240.00
2019-03-20T08:12:28.199Z,11480.00
2019-03-20T08:13:28.204Z,11964.00
2019-03-20T08:14:28.235Z,12132.00
2019-03-20T08:15:28.210Z,11864.00
2019-03-20T08:16:28.213Z,11484.00
2019-03-20T08:17:28.225Z,11368.00
2019-03-20T08:18:28.219Z,11476.00
2019-03-20T08:19:28.259Z,11752.00
2019-03-20T08:20:28.262Z,12124.00
2019-03-20T08:21:28.236Z,12536.00
2019-03-20T08:22:28.243Z,12804.00
2019-03-20T08:23:28.251Z,12704.00
2019-03-20T08:24:28.287Z,12692.00
2019-03-20T08:25:28.262Z,13064.00
2019-03-20T08:26:28.263Z,13232.00
2019-03-20T08:27:28.271Z,12872.00
2019-03-20T08:28:28.285Z,12428.00
2019-03-20T08:29:28.310Z,12480.00
2019-03-20T08:30:28.317Z,13284.00
2019-03-20T08:31:28.295Z,13860.00
2019-03-20T08:32:28.306Z,13212.00
2019-03-20T08:33:28.313Z,12564.00
2019-03-20T08:34:28.344Z,12344.00
2019-03-20T08:35:28.325Z,12584.00
2019-03-20T08:36:28.362Z,13168.00
2019-03-20T08:37:28.338Z,13260.00
2019-03-20T08:38:28.346Z,13108.00
2019-03-20T08:39:28.379Z,13168.00
2019-03-20T08:40:28.360Z,13248.00
2019-03-20T08:41:28.369Z,13184.00
2019-03-20T08:42:28.406Z,13200.00
2019-03-20T08:43:28.381Z,13644.00
2019-03-20T08:44:28.417Z,14156.00
2019-03-20T08:45:28.401Z,14044.00
2019-03-20T08:46:28.405Z,13468.00
2019-03-20T08:47:28.418Z,13256.00
2019-03-20T08:48:28.456Z,13272.00
2019-03-20T08:49:28.463Z,13676.00
2019-03-20T08:50:28.440Z,13640.00
2019-03-20T08:51:28.456Z,13332.00
2019-03-20T08:52:28.457Z,13776.00
2019-03-20T08:53:28.500Z,14364.00
2019-03-20T08:54:28.509Z,14376.00
2019-03-20T08:55:28.485Z,14080.00
2019-03-20T08:56:28.502Z,13816.00
2019-03-20T08:57:28.511Z,13932.00
2019-03-20T08:58:28.516Z,14064.00
2019-03-20T08:59:28.557Z,14104.00
2019-03-20T09:00:28.562Z,13996.00
2019-03-20T09:01:29.174Z,13912.00
2019-03-20T09:02:28.552Z,14372.00
2019-03-20T09:03:28.557Z,14788.00
2019-03-20T09:04:28.610Z,15036.00
2019-03-20T09:05:28.588Z,14504.00
2019-03-20T09:06:28.592Z,13904.00
2019-03-20T09:07:28.601Z,14244.00
2019-03-20T09:08:29.879Z,14496.00
2019-03-20T09:09:28.649Z,14744.00
2019-03-20T09:10:28.671Z,15104.00
2019-03-20T09:11:28.645Z,15020.00
2019-03-20T09:12:28.657Z,15172.00
2019-03-20T09:13:28.663Z,15888.00
2019-03-20T09:14:28.676Z,16764.00
2019-03-20T09:15:28.707Z,16840.00
2019-03-20T09:16:28.695Z,16244.00
2019-03-20T09:17:28.704Z,15504.00
2019-03-20T09:18:28.717Z,14728.00
2019-03-20T09:19:28.739Z,14748.00
2019-03-20T09:20:28.771Z,14872.00
2019-03-20T09:21:28.777Z,15148.00
2019-03-20T09:22:28.759Z,15768.00
2019-03-20T09:23:28.763Z,16004.00
2019-03-20T09:24:28.964Z,15948.00
2019-03-20T09:25:28.815Z,15312.00
2019-03-20T09:26:28.795Z,14384.00
2019-03-20T09:27:28.803Z,13988.00
2019-03-20T09:28:28.815Z,13884.00
2019-03-20T09:29:35.925Z,13828.00
2019-03-20T09:30:28.880Z,13756.00
2019-03-20T09:31:28.843Z,13672.00
2019-03-20T09:32:28.858Z,13388.00
2019-03-20T09:33:28.870Z,13244.00
2019-03-20T09:34:28.875Z,13256.00
2019-03-20T09:35:28.915Z,13284.00
2019-03-20T09:36:28.926Z,13344.00
2019-03-20T09:37:28.912Z,13404.00
2019-03-20T09:38:28.914Z,13360.00
2019-03-20T09:39:28.929Z,13468.00
2019-03-20T09:40:28.973Z,13540.00
2019-03-20T09:41:28.943Z,13656.00
2019-03-20T09:42:28.962Z,13756.00
2019-03-20T09:43:28.966Z,13856.00
2019-03-20T09:44:30.687Z,13968.00
2019-03-20T09:45:29.029Z,14028.00
2019-03-20T09:46:29.001Z,14188.00
2019-03-20T09:47:29.006Z,14288.00
2019-03-20T09:48:29.022Z,14588.00
2019-03-20T09:49:29.053Z,14856.00
2019-03-20T09:50:29.041Z,15316.00
2019-03-20T09:51:29.074Z,15756.00
2019-03-20T09:52:29.066Z,16400.00
2019-03-20T09:53:29.068Z,17296.00
2019-03-20T09:54:29.078Z,17764.00
2019-03-20T09:55:29.105Z,18304.00
2019-03-20T09:56:29.134Z,19072.00
2019-03-20T09:57:29.114Z,19936.00
2019-03-20T09:58:29.126Z,20896.00
2019-03-20T09:59:29.156Z,21952.00
2019-03-20T10:00:29.186Z,22880.00
2019-03-20T10:01:29.187Z,23616.00
2019-03-20T10:02:29.167Z,24416.00
2019-03-20T10:03:29.177Z,24832.00
2019-03-20T10:04:29.193Z,25568.00
2019-03-20T10:05:29.196Z,26112.00
2019-03-20T10:06:30.234Z,26464.00
2019-03-20T10:07:29.222Z,27296.00
2019-03-20T10:08:29.233Z,27904.00
2019-03-20T10:09:29.259Z,28576.00
2019-03-20T10:10:29.259Z,29888.00
2019-03-20T10:11:29.298Z,31200.00
2019-03-20T10:12:29.309Z,32192.00
2019-03-20T10:13:29.290Z,33536.00
2019-03-20T10:14:29.305Z,35392.00
2019-03-20T10:15:29.371Z,35904.00
2019-03-20T10:16:29.353Z,38176.00
2019-03-20T10:17:29.337Z,41472.00
2019-03-20T10:18:29.350Z,44160.00
2019-03-20T10:19:29.365Z,48928.00
2019-03-20T10:20:29.385Z,54208.00
2019-03-20T10:21:29.413Z,59040.00
2019-03-20T10:22:29.401Z,58464.00
2019-03-20T10:23:29.414Z,56864.00
2019-03-20T10:24:29.430Z,56288.00
2019-03-20T10:25:29.438Z,59712.00
2019-03-20T10:26:29.477Z,63616.00
2019-03-20T10:27:29.466Z,70144.00
2019-03-20T10:28:29.473Z,74048.00
2019-03-20T10:29:29.481Z,75104.00
2019-03-20T10:30:29.496Z,77472.00
2019-03-20T10:31:29.542Z,80448.00
2019-03-20T10:32:29.550Z,79872.00
2019-03-20T10:33:29.538Z,84512.00
2019-03-20T10:34:39.186Z,85792.00
2019-03-20T10:35:29.557Z,84064.00
2019-03-20T10:36:29.597Z,88320.00
2019-03-20T10:37:29.581Z,90464.00
2019-03-20T10:38:29.589Z,92544.00
2019-03-20T10:39:29.609Z,88864.00
2019-03-20T10:40:29.624Z,87616.00
2019-03-20T10:41:29.656Z,87072.00
2019-03-20T10:42:29.672Z,90848.00
2019-03-20T10:43:29.656Z,92480.00
2019-03-20T10:44:29.669Z,90656.00
2019-03-20T10:45:29.692Z,90752.00
2019-03-20T10:46:29.693Z,92192.00
2019-03-20T10:47:29.741Z,96512.00
2019-03-20T10:48:29.754Z,97856.00
2019-03-20T10:49:29.737Z,92992.00
2019-03-20T10:50:29.826Z,85120.00
2019-03-20T10:51:29.761Z,86816.00
2019-03-20T10:52:29.805Z,90208.00
2019-03-20T10:53:29.786Z,89280.00
2019-03-20T10:54:29.798Z,86752.00
2019-03-20T10:55:29.812Z,83904.00
2019-03-20T10:56:29.828Z,87904.00
2019-03-20T10:57:29.865Z,91264.00
2019-03-20T10:58:29.881Z,90912.00
2019-03-20T10:59:29.860Z,92288.00
2019-03-20T11:00:29.884Z,91776.00
2019-03-20T11:01:29.888Z,95168.00
2019-03-20T11:02:29.932Z,88416.00
2019-03-20T11:03:29.926Z,88736.00
2019-03-20T11:04:29.933Z,89120.00
2019-03-20T11:05:29.951Z,88864.00
2019-03-20T11:06:29.960Z,89984.00
2019-03-20T11:07:30.012Z,90592.00
2019-03-20T11:08:29.991Z,91392.00
2019-03-20T11:09:30.011Z,90912.00
2019-03-20T11:10:30.023Z,89472.00
2019-03-20T11:11:30.035Z,91200.00
2019-03-20T11:12:30.078Z,93280.00
2019-03-20T11:13:30.061Z,96320.00
2019-03-20T11:14:30.079Z,92384.00
2019-03-20T11:15:30.095Z,95168.00
2019-03-20T11:16:30.104Z,96960.00
2019-03-20T11:17:30.156Z,89856.00
2019-03-20T11:18:30.170Z,88992.00
2019-03-20T11:19:30.166Z,93760.00
2019-03-20T11:20:30.169Z,94496.00
2019-03-20T11:21:30.166Z,95968.00
2019-03-20T11:22:30.222Z,95168.00
2019-03-20T11:23:30.209Z,93504.00
2019-03-20T11:24:30.218Z,95264.00
2019-03-20T11:25:30.243Z,94592.00
2019-03-20T11:26:30.254Z,89952.00
2019-03-20T11:27:33.101Z,88352.00
2019-03-20T11:28:30.284Z,85664.00
2019-03-20T11:29:30.301Z,87456.00
2019-03-20T11:30:30.322Z,88864.00
2019-03-20T11:31:30.337Z,87200.00
2019-03-20T11:32:30.386Z,86688.00
2019-03-20T11:33:30.394Z,85248.00
2019-03-20T11:34:30.379Z,90848.00
2019-03-20T11:35:30.393Z,93024.00
2019-03-20T11:36:30.414Z,90304.00
2019-03-20T11:37:30.457Z,85664.00
2019-03-20T11:38:30.485Z,86112.00
2019-03-20T11:39:30.457Z,91776.00
2019-03-20T11:40:30.466Z,93760.00
2019-03-20T11:41:30.519Z,94144.00
2019-03-20T11:42:30.502Z,96064.00
2019-03-20T11:43:30.517Z,90592.00
2019-03-20T11:44:30.593Z,92096.00
2019-03-20T11:45:30.550Z,93472.00
2019-03-20T11:46:30.563Z,93408.00
2019-03-20T11:47:30.608Z,93824.00
2019-03-20T11:48:33.238Z,93920.00
2019-03-20T11:49:30.610Z,90720.00
2019-03-20T11:50:30.671Z,92320.00
2019-03-20T11:51:30.641Z,97120.00
2019-03-20T11:52:30.685Z,97728.00
2019-03-20T11:53:30.682Z,91872.00
2019-03-20T11:54:30.696Z,88704.00
2019-03-20T11:55:30.701Z,95264.00
2019-03-20T11:56:30.751Z,92128.00
2019-03-20T11:57:30.771Z,89312.00
2019-03-20T11:58:30.779Z,96448.00
2019-03-20T11:59:30.764Z,94848.00
2019-03-20T12:00:30.779Z,89952.00
2019-03-20T12:01:30.793Z,87712.00
2019-03-20T12:02:30.837Z,92896.00
2019-03-20T12:03:30.845Z,94336.00
2019-03-20T12:04:30.962Z,89984.00
2019-03-20T12:05:30.853Z,84704.00
2019-03-20T12:06:30.872Z,85344.00
2019-03-20T12:07:30.882Z,89472.00
2019-03-20T12:08:30.923Z,93088.00
2019-03-20T12:09:40.690Z,96192.00
2019-03-20T12:10:30.926Z,96224.00
2019-03-20T12:11:30.952Z,97472.00
2019-03-20T12:12:30.969Z,93376.00
2019-03-20T12:13:31.001Z,94304.00
2019-03-20T12:14:30.979Z,95520.00
2019-03-20T12:15:30.999Z,92864.00
2019-03-20T12:16:31.016Z,92800.00
2019-03-20T12:17:31.034Z,90016.00
2019-03-20T12:18:31.073Z,92576.00
2019-03-20T12:19:31.060Z,96256.00
2019-03-20T12:20:31.085Z,95648.00
2019-03-20T12:21:31.092Z,94720.00
2019-03-20T12:22:31.099Z,90432.00
2019-03-20T12:23:33.593Z,90592.00
2019-03-20T12:24:31.258Z,83008.00
2019-03-20T12:25:31.173Z,77312.00